sensor_id;sensor_type;location;lat;lon;timestamp;temperature;humidity
43520;DHT22;46848;51.980;5.918;2023-09-18T00:00:03;21.00;84.40
43520;DHT22;46848;51.980;5.918;2023-09-18T00:02:40;20.90;84.40
43520;DHT22;46848;51.980;5.918;2023-09-18T00:05:05;20.90;84.50
43520;DHT22;46848;51.980;5.918;2023-09-18T00:07:32;20.90;84.60
43520;DHT22;46848;51.980;5.918;2023-09-18T00:10:01;20.90;85.20
43520;DHT22;46848;51.980;5.918;2023-09-18T00:12:27;20.90;84.80
43520;DHT22;46848;51.980;5.918;2023-09-18T00:14:52;20.90;84.80
43520;DHT22;46848;51.980;5.918;2023-09-18T00:17:18;20.90;84.90
43520;DHT22;46848;51.980;5.918;2023-09-18T00:19:44;20.80;84.90
43520;DHT22;46848;51.980;5.918;2023-09-18T00:22:10;20.90;85.00
43520;DHT22;46848;51.980;5.918;2023-09-18T00:24:37;20.80;84.90
43520;DHT22;46848;51.980;5.918;2023-09-18T00:27:03;20.80;84.90
43520;DHT22;46848;51.980;5.918;2023-09-18T00:29:28;20.80;84.90
43520;DHT22;46848;51.980;5.918;2023-09-18T00:31:54;20.80;84.90
43520;DHT22;46848;51.980;5.918;2023-09-18T00:34:19;20.80;85.00
43520;DHT22;46848;51.980;5.918;2023-09-18T00:36:45;20.80;85.20
43520;DHT22;46848;51.980;5.918;2023-09-18T00:39:11;20.80;85.20
43520;DHT22;46848;51.980;5.918;2023-09-18T00:41:36;20.80;85.30
43520;DHT22;46848;51.980;5.918;2023-09-18T00:44:02;20.80;85.30
43520;DHT22;46848;51.980;5.918;2023-09-18T00:46:28;20.80;85.30
43520;DHT22;46848;51.980;5.918;2023-09-18T00:48:54;20.80;85.20
43520;DHT22;46848;51.980;5.918;2023-09-18T00:51:22;20.80;85.20
43520;DHT22;46848;51.980;5.918;2023-09-18T00:53:48;20.80;85.20
43520;DHT22;46848;51.980;5.918;2023-09-18T00:56:14;20.90;85.40
43520;DHT22;46848;51.980;5.918;2023-09-18T00:58:40;20.90;85.30
43520;DHT22;46848;51.980;5.918;2023-09-18T01:01:06;20.90;85.20
43520;DHT22;46848;51.980;5.918;2023-09-18T01:03:34;20.90;85.10
43520;DHT22;46848;51.980;5.918;2023-09-18T01:05:59;20.90;85.10
43520;DHT22;46848;51.980;5.918;2023-09-18T01:08:25;20.90;85.10
43520;DHT22;46848;51.980;5.918;2023-09-18T01:11:07;20.90;85.10
43520;DHT22;46848;51.980;5.918;2023-09-18T01:13:37;20.90;85.00
43520;DHT22;46848;51.980;5.918;2023-09-18T01:16:48;20.90;85.00
43520;DHT22;46848;51.980;5.918;2023-09-18T01:19:05;20.90;85.10
43520;DHT22;46848;51.980;5.918;2023-09-18T01:21:31;20.80;85.10
43520;DHT22;46848;51.980;5.918;2023-09-18T01:23:56;20.90;85.20
43520;DHT22;46848;51.980;5.918;2023-09-18T01:26:22;20.80;85.30
43520;DHT22;46848;51.980;5.918;2023-09-18T01:28:47;20.80;85.30
43520;DHT22;46848;51.980;5.918;2023-09-18T01:31:13;20.80;85.30
43520;DHT22;46848;51.980;5.918;2023-09-18T01:33:39;20.90;85.40
43520;DHT22;46848;51.980;5.918;2023-09-18T01:36:07;20.80;85.30
43520;DHT22;46848;51.980;5.918;2023-09-18T01:38:35;20.80;85.30
43520;DHT22;46848;51.980;5.918;2023-09-18T01:41:01;20.80;85.20
43520;DHT22;46848;51.980;5.918;2023-09-18T01:43:27;20.90;85.30
43520;DHT22;46848;51.980;5.918;2023-09-18T01:45:53;20.90;85.20
43520;DHT22;46848;51.980;5.918;2023-09-18T01:48:18;20.90;85.20
43520;DHT22;46848;51.980;5.918;2023-09-18T01:50:44;20.90;85.30
43520;DHT22;46848;51.980;5.918;2023-09-18T01:53:13;20.90;85.30
43520;DHT22;46848;51.980;5.918;2023-09-18T01:55:47;20.90;85.20
43520;DHT22;46848;51.980;5.918;2023-09-18T01:58:13;20.90;85.30
43520;DHT22;46848;51.980;5.918;2023-09-18T02:00:39;20.90;85.30
43520;DHT22;46848;51.980;5.918;2023-09-18T02:03:05;20.90;85.30
43520;DHT22;46848;51.980;5.918;2023-09-18T02:05:31;20.90;85.30
43520;DHT22;46848;51.980;5.918;2023-09-18T02:07:57;20.90;85.40
43520;DHT22;46848;51.980;5.918;2023-09-18T02:10:23;20.90;85.30
43520;DHT22;46848;51.980;5.918;2023-09-18T02:12:49;20.90;85.20
43520;DHT22;46848;51.980;5.918;2023-09-18T02:15:14;21.00;85.20
43520;DHT22;46848;51.980;5.918;2023-09-18T02:17:42;21.00;85.10
43520;DHT22;46848;51.980;5.918;2023-09-18T02:20:08;21.00;85.60
43520;DHT22;46848;51.980;5.918;2023-09-18T02:22:37;21.00;85.00
43520;DHT22;46848;51.980;5.918;2023-09-18T02:25:05;21.00;84.90
43520;DHT22;46848;51.980;5.918;2023-09-18T02:27:31;21.10;84.90
43520;DHT22;46848;51.980;5.918;2023-09-18T02:29:56;21.10;84.90
43520;DHT22;46848;51.980;5.918;2023-09-18T02:32:22;21.10;84.80
43520;DHT22;46848;51.980;5.918;2023-09-18T02:34:47;21.10;84.80
43520;DHT22;46848;51.980;5.918;2023-09-18T02:37:13;21.10;84.70
43520;DHT22;46848;51.980;5.918;2023-09-18T02:39:39;21.10;84.60
43520;DHT22;46848;51.980;5.918;2023-09-18T02:42:04;21.20;84.60
43520;DHT22;46848;51.980;5.918;2023-09-18T02:44:30;21.20;84.60
43520;DHT22;46848;51.980;5.918;2023-09-18T02:46:55;21.20;84.50
43520;DHT22;46848;51.980;5.918;2023-09-18T02:49:21;21.30;84.40
43520;DHT22;46848;51.980;5.918;2023-09-18T02:51:47;21.20;84.30
43520;DHT22;46848;51.980;5.918;2023-09-18T02:54:12;21.20;84.30
43520;DHT22;46848;51.980;5.918;2023-09-18T02:56:38;21.20;84.20
43520;DHT22;46848;51.980;5.918;2023-09-18T02:59:04;21.20;84.10
43520;DHT22;46848;51.980;5.918;2023-09-18T03:01:29;21.20;84.20
43520;DHT22;46848;51.980;5.918;2023-09-18T03:03:55;21.20;84.20
43520;DHT22;46848;51.980;5.918;2023-09-18T03:06:21;21.20;84.20
43520;DHT22;46848;51.980;5.918;2023-09-18T03:08:47;21.20;84.20
43520;DHT22;46848;51.980;5.918;2023-09-18T03:11:13;21.20;84.10
43520;DHT22;46848;51.980;5.918;2023-09-18T03:13:46;21.20;84.10
43520;DHT22;46848;51.980;5.918;2023-09-18T03:16:12;21.20;84.10
43520;DHT22;46848;51.980;5.918;2023-09-18T03:18:38;21.20;84.70
43520;DHT22;46848;51.980;5.918;2023-09-18T03:21:03;21.20;84.20
43520;DHT22;46848;51.980;5.918;2023-09-18T03:23:29;21.10;84.20
43520;DHT22;46848;51.980;5.918;2023-09-18T03:25:55;21.20;84.30
43520;DHT22;46848;51.980;5.918;2023-09-18T03:28:21;21.20;84.90
43520;DHT22;46848;51.980;5.918;2023-09-18T03:30:46;21.20;84.30
43520;DHT22;46848;51.980;5.918;2023-09-18T03:33:12;21.20;84.20
43520;DHT22;46848;51.980;5.918;2023-09-18T03:35:49;21.20;84.10
43520;DHT22;46848;51.980;5.918;2023-09-18T03:38:15;21.20;84.20
43520;DHT22;46848;51.980;5.918;2023-09-18T03:40:41;21.20;84.10
43520;DHT22;46848;51.980;5.918;2023-09-18T03:43:07;21.30;84.10
43520;DHT22;46848;51.980;5.918;2023-09-18T03:45:33;21.40;83.90
43520;DHT22;46848;51.980;5.918;2023-09-18T03:47:58;21.40;83.70
43520;DHT22;46848;51.980;5.918;2023-09-18T03:50:24;21.40;83.50
43520;DHT22;46848;51.980;5.918;2023-09-18T03:52:51;21.40;83.40
43520;DHT22;46848;51.980;5.918;2023-09-18T03:55:16;21.40;83.30
43520;DHT22;46848;51.980;5.918;2023-09-18T03:57:42;21.50;83.20
43520;DHT22;46848;51.980;5.918;2023-09-18T04:00:08;21.50;83.10
43520;DHT22;46848;51.980;5.918;2023-09-18T04:02:33;21.50;83.10
43520;DHT22;46848;51.980;5.918;2023-09-18T04:05:00;21.50;83.20
43520;DHT22;46848;51.980;5.918;2023-09-18T04:07:25;21.60;83.10
43520;DHT22;46848;51.980;5.918;2023-09-18T04:09:51;21.60;83.00
43520;DHT22;46848;51.980;5.918;2023-09-18T04:12:16;21.60;82.90
43520;DHT22;46848;51.980;5.918;2023-09-18T04:14:43;21.60;82.80
43520;DHT22;46848;51.980;5.918;2023-09-18T04:17:08;21.60;82.80
43520;DHT22;46848;51.980;5.918;2023-09-18T04:19:34;21.60;82.90
43520;DHT22;46848;51.980;5.918;2023-09-18T04:21:59;21.60;83.00
43520;DHT22;46848;51.980;5.918;2023-09-18T04:24:25;21.60;83.10
43520;DHT22;46848;51.980;5.918;2023-09-18T04:26:51;21.60;83.20
43520;DHT22;46848;51.980;5.918;2023-09-18T04:29:17;21.60;83.30
43520;DHT22;46848;51.980;5.918;2023-09-18T04:31:43;21.50;83.30
43520;DHT22;46848;51.980;5.918;2023-09-18T04:34:09;21.60;83.40
43520;DHT22;46848;51.980;5.918;2023-09-18T04:36:35;21.60;83.40
43520;DHT22;46848;51.980;5.918;2023-09-18T04:39:03;21.50;83.40
43520;DHT22;46848;51.980;5.918;2023-09-18T04:41:30;21.50;83.30
43520;DHT22;46848;51.980;5.918;2023-09-18T04:43:55;21.50;83.30
43520;DHT22;46848;51.980;5.918;2023-09-18T04:46:22;21.50;83.20
43520;DHT22;46848;51.980;5.918;2023-09-18T04:48:49;21.50;83.20
43520;DHT22;46848;51.980;5.918;2023-09-18T04:51:14;21.50;83.20
43520;DHT22;46848;51.980;5.918;2023-09-18T04:53:40;21.60;83.30
43520;DHT22;46848;51.980;5.918;2023-09-18T04:56:08;21.60;83.20
43520;DHT22;46848;51.980;5.918;2023-09-18T04:58:35;21.60;83.30
43520;DHT22;46848;51.980;5.918;2023-09-18T05:01:02;21.60;83.20
43520;DHT22;46848;51.980;5.918;2023-09-18T05:03:32;21.70;83.10
43520;DHT22;46848;51.980;5.918;2023-09-18T05:05:59;21.60;83.00
43520;DHT22;46848;51.980;5.918;2023-09-18T05:08:24;21.70;83.00
43520;DHT22;46848;51.980;5.918;2023-09-18T05:10:50;21.70;83.50
43520;DHT22;46848;51.980;5.918;2023-09-18T05:13:16;21.70;82.90
43520;DHT22;46848;51.980;5.918;2023-09-18T05:15:41;21.70;82.90
43520;DHT22;46848;51.980;5.918;2023-09-18T05:18:07;21.70;82.90
43520;DHT22;46848;51.980;5.918;2023-09-18T05:20:34;21.70;82.90
43520;DHT22;46848;51.980;5.918;2023-09-18T05:23:00;21.70;83.50
43520;DHT22;46848;51.980;5.918;2023-09-18T05:25:28;21.80;83.00
43520;DHT22;46848;51.980;5.918;2023-09-18T05:27:57;21.70;82.90
43520;DHT22;46848;51.980;5.918;2023-09-18T05:30:33;21.80;83.10
43520;DHT22;46848;51.980;5.918;2023-09-18T05:33:03;21.80;83.20
43520;DHT22;46848;51.980;5.918;2023-09-18T05:35:42;21.80;83.20
43520;DHT22;46848;51.980;5.918;2023-09-18T05:38:10;21.80;83.30
43520;DHT22;46848;51.980;5.918;2023-09-18T05:40:36;21.80;83.30
43520;DHT22;46848;51.980;5.918;2023-09-18T05:43:02;21.80;83.30
43520;DHT22;46848;51.980;5.918;2023-09-18T05:45:27;21.80;83.40
43520;DHT22;46848;51.980;5.918;2023-09-18T05:47:54;21.80;83.30
43520;DHT22;46848;51.980;5.918;2023-09-18T05:50:26;21.80;83.30
43520;DHT22;46848;51.980;5.918;2023-09-18T05:52:54;21.90;83.40
43520;DHT22;46848;51.980;5.918;2023-09-18T05:55:20;21.90;83.50
43520;DHT22;46848;51.980;5.918;2023-09-18T05:57:45;21.90;83.50
43520;DHT22;46848;51.980;5.918;2023-09-18T06:00:12;21.90;83.50
43520;DHT22;46848;51.980;5.918;2023-09-18T06:02:43;21.90;83.60
43520;DHT22;46848;51.980;5.918;2023-09-18T06:05:08;21.90;83.50
43520;DHT22;46848;51.980;5.918;2023-09-18T06:07:36;21.90;84.10
43520;DHT22;46848;51.980;5.918;2023-09-18T06:10:02;21.80;83.50
43520;DHT22;46848;51.980;5.918;2023-09-18T06:12:28;21.80;83.60
43520;DHT22;46848;51.980;5.918;2023-09-18T06:14:54;21.80;83.70
43520;DHT22;46848;51.980;5.918;2023-09-18T06:17:20;21.80;83.70
43520;DHT22;46848;51.980;5.918;2023-09-18T06:19:46;21.80;83.70
43520;DHT22;46848;51.980;5.918;2023-09-18T06:22:12;21.80;83.80
43520;DHT22;46848;51.980;5.918;2023-09-18T06:24:37;21.80;84.00
43520;DHT22;46848;51.980;5.918;2023-09-18T06:27:03;21.80;84.10
43520;DHT22;46848;51.980;5.918;2023-09-18T06:29:33;21.80;84.20
43520;DHT22;46848;51.980;5.918;2023-09-18T06:31:59;21.80;84.40
43520;DHT22;46848;51.980;5.918;2023-09-18T06:34:25;21.80;85.10
43520;DHT22;46848;51.980;5.918;2023-09-18T06:36:51;21.80;84.60
43520;DHT22;46848;51.980;5.918;2023-09-18T06:39:17;21.80;84.80
43520;DHT22;46848;51.980;5.918;2023-09-18T06:41:42;21.70;84.70
43520;DHT22;46848;51.980;5.918;2023-09-18T06:44:09;21.70;84.80
43520;DHT22;46848;51.980;5.918;2023-09-18T06:46:35;21.70;84.90
43520;DHT22;46848;51.980;5.918;2023-09-18T06:49:00;21.80;84.70
43520;DHT22;46848;51.980;5.918;2023-09-18T06:51:29;21.80;84.70
43520;DHT22;46848;51.980;5.918;2023-09-18T06:53:55;21.80;84.70
43520;DHT22;46848;51.980;5.918;2023-09-18T06:56:26;21.80;84.60
43520;DHT22;46848;51.980;5.918;2023-09-18T06:58:52;21.90;84.60
43520;DHT22;46848;51.980;5.918;2023-09-18T07:01:18;21.90;84.60
43520;DHT22;46848;51.980;5.918;2023-09-18T07:03:45;21.90;84.40
43520;DHT22;46848;51.980;5.918;2023-09-18T07:06:13;21.90;84.30
43520;DHT22;46848;51.980;5.918;2023-09-18T07:08:39;21.90;84.10
43520;DHT22;46848;51.980;5.918;2023-09-18T07:11:04;21.90;83.90
43520;DHT22;46848;51.980;5.918;2023-09-18T07:13:30;21.90;83.70
43520;DHT22;46848;51.980;5.918;2023-09-18T07:15:56;21.90;83.60
43520;DHT22;46848;51.980;5.918;2023-09-18T07:18:21;22.00;83.60
43520;DHT22;46848;51.980;5.918;2023-09-18T07:20:48;22.00;83.20
43520;DHT22;46848;51.980;5.918;2023-09-18T07:23:13;22.00;83.00
43520;DHT22;46848;51.980;5.918;2023-09-18T07:25:40;22.10;82.90
43520;DHT22;46848;51.980;5.918;2023-09-18T07:28:08;22.10;82.50
43520;DHT22;46848;51.980;5.918;2023-09-18T07:30:34;22.00;82.10
43520;DHT22;46848;51.980;5.918;2023-09-18T07:33:01;22.10;82.00
43520;DHT22;46848;51.980;5.918;2023-09-18T07:35:27;22.10;81.60
43520;DHT22;46848;51.980;5.918;2023-09-18T07:37:53;22.10;81.30
43520;DHT22;46848;51.980;5.918;2023-09-18T07:40:19;22.10;81.10
43520;DHT22;46848;51.980;5.918;2023-09-18T07:42:44;22.10;81.00
43520;DHT22;46848;51.980;5.918;2023-09-18T07:45:11;22.10;81.00
43520;DHT22;46848;51.980;5.918;2023-09-18T07:47:37;22.10;81.00
43520;DHT22;46848;51.980;5.918;2023-09-18T07:50:02;22.20;80.60
43520;DHT22;46848;51.980;5.918;2023-09-18T07:52:28;22.20;80.10
43520;DHT22;46848;51.980;5.918;2023-09-18T07:54:55;22.10;80.10
43520;DHT22;46848;51.980;5.918;2023-09-18T07:57:20;22.10;80.00
43520;DHT22;46848;51.980;5.918;2023-09-18T07:59:48;22.10;79.60
43520;DHT22;46848;51.980;5.918;2023-09-18T08:02:14;22.10;79.50
43520;DHT22;46848;51.980;5.918;2023-09-18T08:04:39;22.10;79.50
43520;DHT22;46848;51.980;5.918;2023-09-18T08:07:05;22.10;79.70
43520;DHT22;46848;51.980;5.918;2023-09-18T08:09:33;22.10;79.50
43520;DHT22;46848;51.980;5.918;2023-09-18T08:12:05;22.00;79.20
43520;DHT22;46848;51.980;5.918;2023-09-18T08:14:31;22.10;79.30
43520;DHT22;46848;51.980;5.918;2023-09-18T08:16:58;22.10;79.30
43520;DHT22;46848;51.980;5.918;2023-09-18T08:19:26;22.10;79.30
43520;DHT22;46848;51.980;5.918;2023-09-18T08:21:55;22.20;79.20
43520;DHT22;46848;51.980;5.918;2023-09-18T08:24:21;22.20;79.10
43520;DHT22;46848;51.980;5.918;2023-09-18T08:26:47;22.20;78.80
43520;DHT22;46848;51.980;5.918;2023-09-18T08:29:13;22.20;78.30
43520;DHT22;46848;51.980;5.918;2023-09-18T08:31:38;22.20;78.20
43520;DHT22;46848;51.980;5.918;2023-09-18T08:34:04;22.20;78.30
43520;DHT22;46848;51.980;5.918;2023-09-18T08:36:30;22.30;78.20
43520;DHT22;46848;51.980;5.918;2023-09-18T08:38:56;22.30;78.20
43520;DHT22;46848;51.980;5.918;2023-09-18T08:41:23;22.30;78.30
43520;DHT22;46848;51.980;5.918;2023-09-18T08:43:52;22.40;78.40
43520;DHT22;46848;51.980;5.918;2023-09-18T08:46:20;22.50;78.40
43520;DHT22;46848;51.980;5.918;2023-09-18T08:48:46;22.60;78.10
43520;DHT22;46848;51.980;5.918;2023-09-18T08:51:13;22.80;77.40
43520;DHT22;46848;51.980;5.918;2023-09-18T08:53:39;22.90;76.50
43520;DHT22;46848;51.980;5.918;2023-09-18T08:56:06;22.90;75.80
43520;DHT22;46848;51.980;5.918;2023-09-18T08:58:34;22.90;75.40
43520;DHT22;46848;51.980;5.918;2023-09-18T09:01:03;22.90;75.10
43520;DHT22;46848;51.980;5.918;2023-09-18T09:03:30;22.80;75.20
43520;DHT22;46848;51.980;5.918;2023-09-18T09:05:56;22.70;75.50
43520;DHT22;46848;51.980;5.918;2023-09-18T09:08:22;22.80;74.80
43520;DHT22;46848;51.980;5.918;2023-09-18T09:10:48;22.80;74.60
43520;DHT22;46848;51.980;5.918;2023-09-18T09:13:15;22.80;74.50
43520;DHT22;46848;51.980;5.918;2023-09-18T09:15:45;22.80;74.00
43520;DHT22;46848;51.980;5.918;2023-09-18T09:18:12;22.80;73.90
43520;DHT22;46848;51.980;5.918;2023-09-18T09:20:39;22.80;73.70
43520;DHT22;46848;51.980;5.918;2023-09-18T09:23:07;22.80;73.50
43520;DHT22;46848;51.980;5.918;2023-09-18T09:25:34;22.80;73.80
43520;DHT22;46848;51.980;5.918;2023-09-18T09:28:01;22.90;74.20
43520;DHT22;46848;51.980;5.918;2023-09-18T09:30:29;23.00;74.10
43520;DHT22;46848;51.980;5.918;2023-09-18T09:32:57;23.00;74.10
43520;DHT22;46848;51.980;5.918;2023-09-18T09:35:33;23.00;73.50
43520;DHT22;46848;51.980;5.918;2023-09-18T09:38:01;23.20;73.50
43520;DHT22;46848;51.980;5.918;2023-09-18T09:40:29;23.40;73.80
43520;DHT22;46848;51.980;5.918;2023-09-18T09:42:56;23.60;72.30
43520;DHT22;46848;51.980;5.918;2023-09-18T09:45:31;23.80;71.10
43520;DHT22;46848;51.980;5.918;2023-09-18T09:48:02;23.90;70.70
43520;DHT22;46848;51.980;5.918;2023-09-18T09:50:28;24.00;70.40
43520;DHT22;46848;51.980;5.918;2023-09-18T09:52:55;24.10;70.00
43520;DHT22;46848;51.980;5.918;2023-09-18T09:55:28;24.10;70.20
43520;DHT22;46848;51.980;5.918;2023-09-18T09:58:03;24.30;70.00
43520;DHT22;46848;51.980;5.918;2023-09-18T10:03:00;24.80;70.10
43520;DHT22;46848;51.980;5.918;2023-09-18T10:05:28;25.00;69.20
43520;DHT22;46848;51.980;5.918;2023-09-18T10:07:57;25.30;68.50
43520;DHT22;46848;51.980;5.918;2023-09-18T10:10:33;25.40;68.10
43520;DHT22;46848;51.980;5.918;2023-09-18T10:13:04;25.60;67.80
43520;DHT22;46848;51.980;5.918;2023-09-18T10:15:34;25.70;67.50
43520;DHT22;46848;51.980;5.918;2023-09-18T10:18:05;25.80;67.30
43520;DHT22;46848;51.980;5.918;2023-09-18T10:20:37;25.90;67.40
43520;DHT22;46848;51.980;5.918;2023-09-18T10:23:12;25.80;67.10
43520;DHT22;46848;51.980;5.918;2023-09-18T10:25:45;25.80;67.10
43520;DHT22;46848;51.980;5.918;2023-09-18T10:28:11;25.70;67.10
43520;DHT22;46848;51.980;5.918;2023-09-18T10:30:41;25.60;67.20
43520;DHT22;46848;51.980;5.918;2023-09-18T10:33:07;25.50;67.40
43520;DHT22;46848;51.980;5.918;2023-09-18T10:35:34;25.40;67.70
43520;DHT22;46848;51.980;5.918;2023-09-18T10:38:02;25.30;67.90
43520;DHT22;46848;51.980;5.918;2023-09-18T10:40:28;25.10;68.00
43520;DHT22;46848;51.980;5.918;2023-09-18T10:42:57;25.10;68.10
43520;DHT22;46848;51.980;5.918;2023-09-18T10:45:23;24.90;68.10
43520;DHT22;46848;51.980;5.918;2023-09-18T10:47:49;25.00;68.00
43520;DHT22;46848;51.980;5.918;2023-09-18T10:50:29;24.90;68.00
43520;DHT22;46848;51.980;5.918;2023-09-18T10:52:58;24.90;68.30
43520;DHT22;46848;51.980;5.918;2023-09-18T10:55:25;24.80;68.00
43520;DHT22;46848;51.980;5.918;2023-09-18T10:57:59;24.70;67.80
43520;DHT22;46848;51.980;5.918;2023-09-18T11:00:26;24.70;67.80
43520;DHT22;46848;51.980;5.918;2023-09-18T11:02:53;24.60;67.90
43520;DHT22;46848;51.980;5.918;2023-09-18T11:05:40;24.60;67.90
43520;DHT22;46848;51.980;5.918;2023-09-18T11:11:07;24.50;67.90
43520;DHT22;46848;51.980;5.918;2023-09-18T11:13:43;24.50;68.00
43520;DHT22;46848;51.980;5.918;2023-09-18T11:21:38;24.50;67.90
43520;DHT22;46848;51.980;5.918;2023-09-18T11:24:05;24.50;67.70
43520;DHT22;46848;51.980;5.918;2023-09-18T11:26:33;24.50;67.90
43520;DHT22;46848;51.980;5.918;2023-09-18T11:29:07;24.60;67.60
43520;DHT22;46848;51.980;5.918;2023-09-18T11:31:50;24.70;67.40
43520;DHT22;46848;51.980;5.918;2023-09-18T11:34:20;24.80;66.90
43520;DHT22;46848;51.980;5.918;2023-09-18T11:36:46;24.80;66.80
43520;DHT22;46848;51.980;5.918;2023-09-18T11:39:12;24.70;66.50
43520;DHT22;46848;51.980;5.918;2023-09-18T11:41:38;24.70;66.70
43520;DHT22;46848;51.980;5.918;2023-09-18T11:46:46;24.50;66.80
43520;DHT22;46848;51.980;5.918;2023-09-18T11:49:14;24.40;67.00
43520;DHT22;46848;51.980;5.918;2023-09-18T11:51:41;24.40;67.30
43520;DHT22;46848;51.980;5.918;2023-09-18T11:54:08;24.40;67.40
43520;DHT22;46848;51.980;5.918;2023-09-18T11:56:34;24.30;67.60
43520;DHT22;46848;51.980;5.918;2023-09-18T11:58:59;24.30;67.90
43520;DHT22;46848;51.980;5.918;2023-09-18T12:01:31;24.30;67.90
43520;DHT22;46848;51.980;5.918;2023-09-18T12:04:03;24.50;67.70
43520;DHT22;46848;51.980;5.918;2023-09-18T12:06:34;24.70;67.30
43520;DHT22;46848;51.980;5.918;2023-09-18T12:09:01;24.80;66.30
43520;DHT22;46848;51.980;5.918;2023-09-18T12:11:26;24.90;65.80
43520;DHT22;46848;51.980;5.918;2023-09-18T12:13:53;25.00;65.50
43520;DHT22;46848;51.980;5.918;2023-09-18T12:16:18;25.00;65.00
43520;DHT22;46848;51.980;5.918;2023-09-18T12:18:48;25.10;64.70
43520;DHT22;46848;51.980;5.918;2023-09-18T12:21:15;25.10;64.60
43520;DHT22;46848;51.980;5.918;2023-09-18T12:23:43;25.20;64.90
43520;DHT22;46848;51.980;5.918;2023-09-18T12:26:11;25.30;64.10
43520;DHT22;46848;51.980;5.918;2023-09-18T12:28:42;25.40;63.80
43520;DHT22;46848;51.980;5.918;2023-09-18T12:31:12;25.40;63.80
43520;DHT22;46848;51.980;5.918;2023-09-18T12:33:38;25.40;63.60
43520;DHT22;46848;51.980;5.918;2023-09-18T12:36:05;25.50;63.60
43520;DHT22;46848;51.980;5.918;2023-09-18T12:38:32;25.60;63.60
43520;DHT22;46848;51.980;5.918;2023-09-18T12:40:59;25.70;63.40
43520;DHT22;46848;51.980;5.918;2023-09-18T12:43:39;25.70;63.30
43520;DHT22;46848;51.980;5.918;2023-09-18T12:46:06;25.90;63.20
43520;DHT22;46848;51.980;5.918;2023-09-18T12:48:32;25.90;62.90
43520;DHT22;46848;51.980;5.918;2023-09-18T12:51:03;25.80;62.60
43520;DHT22;46848;51.980;5.918;2023-09-18T12:53:29;25.80;62.80
43520;DHT22;46848;51.980;5.918;2023-09-18T12:56:11;25.70;62.40
43520;DHT22;46848;51.980;5.918;2023-09-18T12:58:41;25.80;62.60
43520;DHT22;46848;51.980;5.918;2023-09-18T13:01:09;25.80;62.50
43520;DHT22;46848;51.980;5.918;2023-09-18T13:03:42;25.80;62.20
43520;DHT22;46848;51.980;5.918;2023-09-18T13:06:15;25.80;61.90
43520;DHT22;46848;51.980;5.918;2023-09-18T13:08:43;25.80;61.70
43520;DHT22;46848;51.980;5.918;2023-09-18T13:11:10;26.00;61.80
43520;DHT22;46848;51.980;5.918;2023-09-18T13:13:42;26.00;61.30
43520;DHT22;46848;51.980;5.918;2023-09-18T13:16:08;26.00;61.50
43520;DHT22;46848;51.980;5.918;2023-09-18T13:18:35;26.00;60.60
43520;DHT22;46848;51.980;5.918;2023-09-18T13:21:08;26.00;60.30
43520;DHT22;46848;51.980;5.918;2023-09-18T13:23:35;26.00;60.30
43520;DHT22;46848;51.980;5.918;2023-09-18T13:26:02;26.00;60.00
43520;DHT22;46848;51.980;5.918;2023-09-18T13:28:28;26.10;60.20
43520;DHT22;46848;51.980;5.918;2023-09-18T13:30:56;26.10;60.00
43520;DHT22;46848;51.980;5.918;2023-09-18T13:33:23;26.10;59.80
43520;DHT22;46848;51.980;5.918;2023-09-18T13:35:53;26.10;59.70
43520;DHT22;46848;51.980;5.918;2023-09-18T13:38:18;26.10;59.70
43520;DHT22;46848;51.980;5.918;2023-09-18T13:40:46;26.00;59.70
43520;DHT22;46848;51.980;5.918;2023-09-18T13:43:13;26.00;59.70
43520;DHT22;46848;51.980;5.918;2023-09-18T13:45:41;25.90;60.00
43520;DHT22;46848;51.980;5.918;2023-09-18T13:48:07;25.90;60.10
43520;DHT22;46848;51.980;5.918;2023-09-18T13:50:34;25.90;60.10
43520;DHT22;46848;51.980;5.918;2023-09-18T13:53:00;26.00;59.80
43520;DHT22;46848;51.980;5.918;2023-09-18T13:55:26;26.10;59.90
43520;DHT22;46848;51.980;5.918;2023-09-18T13:57:52;26.10;59.70
43520;DHT22;46848;51.980;5.918;2023-09-18T14:00:18;26.20;59.60
43520;DHT22;46848;51.980;5.918;2023-09-18T14:02:43;26.30;59.40
43520;DHT22;46848;51.980;5.918;2023-09-18T14:05:10;26.40;59.20
43520;DHT22;46848;51.980;5.918;2023-09-18T14:07:36;26.40;58.90
43520;DHT22;46848;51.980;5.918;2023-09-18T14:10:08;26.40;58.70
43520;DHT22;46848;51.980;5.918;2023-09-18T14:12:35;26.40;58.50
43520;DHT22;46848;51.980;5.918;2023-09-18T14:15:02;26.40;58.60
43520;DHT22;46848;51.980;5.918;2023-09-18T14:17:28;26.40;58.50
43520;DHT22;46848;51.980;5.918;2023-09-18T14:19:55;26.40;57.70
43520;DHT22;46848;51.980;5.918;2023-09-18T14:22:20;26.50;58.00
43520;DHT22;46848;51.980;5.918;2023-09-18T14:24:46;26.50;57.80
43520;DHT22;46848;51.980;5.918;2023-09-18T14:27:13;26.50;57.80
43520;DHT22;46848;51.980;5.918;2023-09-18T14:29:38;26.50;57.60
43520;DHT22;46848;51.980;5.918;2023-09-18T14:32:04;26.50;57.70
43520;DHT22;46848;51.980;5.918;2023-09-18T14:34:32;26.40;57.90
43520;DHT22;46848;51.980;5.918;2023-09-18T14:37:01;26.50;57.80
43520;DHT22;46848;51.980;5.918;2023-09-18T14:39:30;26.50;57.50
43520;DHT22;46848;51.980;5.918;2023-09-18T14:41:55;26.30;56.70
43520;DHT22;46848;51.980;5.918;2023-09-18T14:44:21;26.20;56.30
43520;DHT22;46848;51.980;5.918;2023-09-18T14:46:46;26.20;57.00
43520;DHT22;46848;51.980;5.918;2023-09-18T14:49:12;26.10;57.20
43520;DHT22;46848;51.980;5.918;2023-09-18T14:51:38;26.10;57.60
43520;DHT22;46848;51.980;5.918;2023-09-18T14:54:03;25.90;57.20
43520;DHT22;46848;51.980;5.918;2023-09-18T14:56:30;25.90;57.30
43520;DHT22;46848;51.980;5.918;2023-09-18T14:58:56;25.80;57.50
43520;DHT22;46848;51.980;5.918;2023-09-18T15:01:24;25.80;57.90
43520;DHT22;46848;51.980;5.918;2023-09-18T15:03:51;25.70;57.90
43520;DHT22;46848;51.980;5.918;2023-09-18T15:06:17;25.70;57.80
43520;DHT22;46848;51.980;5.918;2023-09-18T15:08:42;25.60;57.80
43520;DHT22;46848;51.980;5.918;2023-09-18T15:11:10;25.60;57.80
43520;DHT22;46848;51.980;5.918;2023-09-18T15:13:36;25.60;57.90
43520;DHT22;46848;51.980;5.918;2023-09-18T15:16:02;25.50;57.90
43520;DHT22;46848;51.980;5.918;2023-09-18T15:18:28;25.50;58.00
43520;DHT22;46848;51.980;5.918;2023-09-18T15:20:54;25.50;57.90
43520;DHT22;46848;51.980;5.918;2023-09-18T15:23:23;25.50;58.30
43520;DHT22;46848;51.980;5.918;2023-09-18T15:25:50;25.40;58.40
43520;DHT22;46848;51.980;5.918;2023-09-18T15:28:20;25.40;58.70
43520;DHT22;46848;51.980;5.918;2023-09-18T15:30:46;25.40;58.70
43520;DHT22;46848;51.980;5.918;2023-09-18T15:33:13;25.30;58.80
43520;DHT22;46848;51.980;5.918;2023-09-18T15:35:42;25.20;58.90
43520;DHT22;46848;51.980;5.918;2023-09-18T15:38:07;25.20;58.80
43520;DHT22;46848;51.980;5.918;2023-09-18T15:40:34;25.20;58.90
43520;DHT22;46848;51.980;5.918;2023-09-18T15:43:00;25.00;57.70